Delta Ios — SVAK9 — position and weather

sailwx.info

Track history (hours):
 
Tides and Currents Weather Stations Pressure Air Temp Water Temp Dewpoint Dewpoint Depression Visibility Wind Speed Wind Dir Waves Ship Positions

Delta Ios

Last reported at 2015-Jan-20 11:18 UTC. Time now 2015-Jan-31 19:19 UTC.
Position N 50°24' W 000°37'.
Warning: this ship's position is 11 days out of date.

Length 276 m; draft 14.5 m.

Type: Ship (hazmat cat C). MMSI: 240821000.

Date/timePositionNaut miles runAvg speedWind from/ knotsBaromVisibWave heightAir tempDewpointWater temp
2015-Jan-20 11:18N 50°24' W 000°37'911.8
2015-Jan-20 10:34N 50°26' W 000°24'20 9.8
2015-Jan-20 08:34N 50°31' E 000°06'8 8.2
2015-Jan-20 07:34N 50°34' E 000°18'9 9.2
2015-Jan-20 06:33N 50°36' E 000°32'1111.1
2015-Jan-20 05:33N 50°42' E 000°47'1212.0
2015-Jan-20 04:33N 50°49' E 001°03'1311.8
2015-Jan-20 03:29N 50°56' E 001°19'1010.4
2015-Jan-20 02:34N 51°03' E 001°30'9 8.7
2015-Jan-20 01:33N 51°09' E 001°40'8 8.3
2015-Jan-20 00:34N 51°16' E 001°48'9 8.5
2015-Jan-19 23:34N 51°23' E 001°55'10 9.6
2015-Jan-19 22:34N 51°31' E 002°04'1110.7
2015-Jan-19 21:34N 51°39' E 002°15'5810.9
2015-Jan-19 16:14N 52°03' E 003°41'710.4
2015-Jan-19 15:33N 52°03' E 003°52'1110.6
2015-Jan-19 14:34N 51°58' E 004°07'4 4.1
2015-Jan-19 13:31N 51°55' E 004°12'0 0.0
2015-Jan-19 12:31N 51°55' E 004°12'0 0.0
2015-Jan-19 11:31N 51°55' E 004°12'0 0.0
2015-Jan-19 10:29N 51°55' E 004°12'0 0.0
2015-Jan-19 09:31N 51°55' E 004°12'0 0.0
2015-Jan-19 08:31N 51°55' E 004°12'0 0.0
2015-Jan-19 07:31N 51°55' E 004°12'0 0.0
2015-Jan-19 06:31N 51°55' E 004°12'0 0.0
2015-Jan-19 05:31N 51°55' E 004°12'0 0.0
2015-Jan-19 04:31N 51°55' E 004°12'0 0.0
2015-Jan-19 03:28N 51°55' E 004°12'0 0.0
2015-Jan-19 02:32N 51°55' E 004°12'0 0.0
2015-Jan-19 01:31N 51°55' E 004°12'0 0.0
2015-Jan-19 00:31N 51°55' E 004°12'0 0.0
2015-Jan-18 23:31N 51°55' E 004°12'0 0.0
2015-Jan-18 22:31N 51°55' E 004°12'0 0.0
2015-Jan-18 21:31N 51°55' E 004°12'0 0.0
2015-Jan-18 20:31N 51°55' E 004°12'0 0.0
2015-Jan-18 19:31N 51°55' E 004°12'0 0.0
2015-Jan-18 18:31N 51°55' E 004°12'0 0.0
2015-Jan-18 17:31N 51°55' E 004°12'0 0.0
2015-Jan-18 16:31N 51°55' E 004°12'0 0.0
2015-Jan-18 15:31N 51°55' E 004°12'0 0.0
2015-Jan-18 14:28N 51°55' E 004°12'0 0.0
2015-Jan-18 13:28N 51°55' E 004°12'0 0.0
2015-Jan-18 12:31N 51°55' E 004°12'0 0.0
2015-Jan-18 11:28N 51°55' E 004°12'0 0.0
2015-Jan-18 10:31N 51°55' E 004°12'0 0.0
2015-Jan-18 09:31N 51°55' E 004°12'0 0.0
2015-Jan-18 08:31N 51°55' E 004°12'0 0.0
2015-Jan-18 07:31N 51°55' E 004°12'0 0.0
2015-Jan-18 06:31N 51°55' E 004°12'0 0.0
2015-Jan-18 05:31N 51°55' E 004°12'0 0.0
2015-Jan-18 04:31N 51°55' E 004°12'0 0.0
2015-Jan-18 03:31N 51°55' E 004°12'0 0.0
2015-Jan-18 02:25N 51°55' E 004°12'0 0.0
2015-Jan-18 01:31N 51°55' E 004°12'0 0.0
2015-Jan-18 00:31N 51°55' E 004°12'0 0.0
2015-Jan-17 23:33N 51°55' E 004°12'4 3.8
2015-Jan-17 22:34N 51°58' E 004°08'2 1.5
2015-Jan-17 21:34N 51°59' E 004°06'9 9.3
2015-Jan-17 20:33N 51°53' E 004°19'1 0.8
2015-Jan-17 19:33N 51°53' E 004°17'0 0.0
2015-Jan-17 18:33N 51°53' E 004°17'0 0.0
2015-Jan-17 17:33N 51°53' E 004°17'0 0.0
2015-Jan-17 16:33N 51°53' E 004°17'0 0.0
2015-Jan-17 15:33N 51°53' E 004°17'0 0.0
2015-Jan-17 14:33N 51°53' E 004°17'0 0.0
2015-Jan-17 13:33N 51°53' E 004°17'0 0.0
2015-Jan-17 12:33N 51°53' E 004°17'0 0.0
2015-Jan-17 11:33N 51°53' E 004°17'0 0.0
2015-Jan-17 10:33N 51°53' E 004°17'0 0.0
2015-Jan-17 09:33N 51°53' E 004°17'0 0.0
2015-Jan-17 08:33N 51°53' E 004°17'0 0.0
2015-Jan-17 07:33N 51°53' E 004°17'0 0.0
2015-Jan-17 06:33N 51°53' E 004°17'0 0.0
2015-Jan-17 05:33N 51°53' E 004°17'0 0.0
2015-Jan-17 04:33N 51°53' E 004°17'0 0.0
2015-Jan-17 03:33N 51°53' E 004°17'0 0.0
2015-Jan-17 02:33N 51°53' E 004°17'0 0.0
2015-Jan-17 01:33N 51°53' E 004°17'0 0.0
2015-Jan-17 00:33N 51°53' E 004°17'0 0.0
2015-Jan-16 23:33N 51°53' E 004°17'0 0.0
2015-Jan-16 22:33N 51°53' E 004°17'0 0.0
2015-Jan-16 21:33N 51°53' E 004°17'0 0.0
2015-Jan-16 20:33N 51°53' E 004°17'0 0.0
2015-Jan-16 19:33N 51°53' E 004°17'0 0.0
2015-Jan-16 18:30N 51°53' E 004°17'0 0.0
2015-Jan-16 17:33N 51°53' E 004°17'0 0.0
2015-Jan-16 16:33N 51°53' E 004°17'0 0.0
2015-Jan-16 15:33N 51°53' E 004°17'0 0.0
2015-Jan-16 14:33N 51°53' E 004°17'0 0.0
2015-Jan-16 13:33N 51°53' E 004°17'0 0.0
2015-Jan-16 12:33N 51°53' E 004°17'0 0.0
2015-Jan-16 11:27N 51°53' E 004°17'0 0.0
2015-Jan-16 10:33N 51°53' E 004°17'0 0.0
2015-Jan-16 09:33N 51°53' E 004°17'0 0.0
2015-Jan-16 08:33N 51°53' E 004°17'0 0.0
2015-Jan-16 07:30N 51°53' E 004°17'0 0.0
2015-Jan-16 06:33N 51°53' E 004°17'0 0.0
2015-Jan-16 05:33N 51°53' E 004°17'0 0.0
2015-Jan-16 04:33N 51°53' E 004°17'0 0.0
2015-Jan-16 03:33N 51°53' E 004°17'0 0.0
2015-Jan-16 02:33N 51°53' E 004°17'0 0.0
2015-Jan-16 01:33N 51°53' E 004°17'0 0.0
2015-Jan-16 00:33N 51°53' E 004°17'0 0.0
2015-Jan-15 23:33N 51°53' E 004°17'0 0.0
2015-Jan-15 22:33N 51°53' E 004°17'0 0.0
2015-Jan-15 21:33N 51°53' E 004°17'0 0.0
2015-Jan-15 20:33N 51°53' E 004°17'0 0.0
2015-Jan-15 19:33N 51°53' E 004°17'0 0.0
2015-Jan-15 18:30N 51°53' E 004°17'0 0.0
2015-Jan-15 17:27N 51°53' E 004°17'0 0.0
2015-Jan-15 16:33N 51°53' E 004°17'0 0.0
2015-Jan-15 15:33N 51°53' E 004°17'0 0.0
2015-Jan-15 14:33N 51°53' E 004°17'0 0.0
2015-Jan-15 13:33N 51°53' E 004°17'1 0.8
2015-Jan-15 12:33N 51°54' E 004°17'8 7.9
2015-Jan-15 11:33N 51°59' E 004°06'1212.0
2015-Jan-15 10:33N 51°59' E 003°47'8 7.9
2015-Jan-15 09:33N 51°57' E 003°35'6 6.4
2015-Jan-15 08:33N 51°54' E 003°25'0 0.4
2015-Jan-15 07:32N 51°54' E 003°26'0 0.0
2015-Jan-15 06:05N 51°54' E 003°26'0 0.1
2015-Jan-15 05:26N 51°54' E 003°26'0 0.0
2015-Jan-15 04:14N 51°54' E 003°26'0 0.0
2015-Jan-15 03:32N 51°54' E 003°26'0 0.0
2015-Jan-15 02:26N 51°54' E 003°26'0 0.0
2015-Jan-15 01:26N 51°54' E 003°26'0 0.0
2015-Jan-15 00:14N 51°54' E 003°26'0 0.0
2015-Jan-14 22:29N 51°54' E 003°25'0 0.0
2015-Jan-14 20:26N 51°54' E 003°26'0 0.1
2015-Jan-14 19:23N 51°54' E 003°26'0 0.1
2015-Jan-14 18:29N 51°54' E 003°26'0 0.0
2015-Jan-14 17:26N 51°54' E 003°26'0 0.0
2015-Jan-14 16:29N 51°54' E 003°26'0 0.1
2015-Jan-14 15:20N 51°54' E 003°26'0 0.0
2015-Jan-14 10:08N 51°54' E 003°26'0 0.1
2015-Jan-14 09:23N 51°54' E 003°26'0 0.1
2015-Jan-14 08:14N 51°54' E 003°26'2 3.2
2015-Jan-14 07:28N 51°54' E 003°22'9 8.8
2015-Jan-14 06:30N 51°52' E 003°09'2310.6
2015-Jan-14 04:21N 51°44' E 002°34'911.2
2015-Jan-14 03:32N 51°37' E 002°25'1110.9
2015-Jan-14 02:33N 51°29' E 002°13'1010.5
2015-Jan-14 01:33N 51°21' E 002°01'1010.1
2015-Jan-14 00:34N 51°14' E 001°50'1010.1
2015-Jan-13 23:33N 51°06' E 001°40'1010.4
2015-Jan-13 22:34N 50°58' E 001°29'1110.6
2015-Jan-13 21:33N 50°48' E 001°24'41 9.6
2015-Jan-13 17:18N 50°24' E 000°32'  
2015-Jan-10 16:07N 39°22' W 009°49'712.5
2015-Jan-10 15:32N 39°15' W 009°50'1212.4
2015-Jan-10 14:33N 39°02' W 009°51'1212.6
2015-Jan-10 13:33N 38°50' W 009°51'1212.4
2015-Jan-10 12:33N 38°37' W 009°49'1212.2
2015-Jan-10 11:33N 38°26' W 009°42'  
Track history (hours):
 
Tides and Currents Weather Stations Pressure Air Temp Water Temp Dewpoint Dewpoint Depression Visibility Wind Speed Wind Dir Waves Ship Positions

Delta Ios

Last reported at 2015-Jan-20 11:18 UTC. Time now 2015-Jan-31 19:19 UTC.
Position N 50°24' W 000°37'.
Warning: this ship's position is 11 days out of date.

Length 276 m; draft 14.5 m.

Type: Ship (hazmat cat C). MMSI: 240821000.

Date/timePositionNaut miles runAvg speedWind from/ knotsBaromVisibWave heightAir tempDewpointWater temp
2015-Jan-20 11:18N 50°24' W 000°37'911.8
2015-Jan-20 10:34N 50°26' W 000°24'20 9.8
2015-Jan-20 08:34N 50°31' E 000°06'8 8.2
2015-Jan-20 07:34N 50°34' E 000°18'9 9.2
2015-Jan-20 06:33N 50°36' E 000°32'1111.1
2015-Jan-20 05:33N 50°42' E 000°47'1212.0
2015-Jan-20 04:33N 50°49' E 001°03'1311.8
2015-Jan-20 03:29N 50°56' E 001°19'1010.4
2015-Jan-20 02:34N 51°03' E 001°30'9 8.7
2015-Jan-20 01:33N 51°09' E 001°40'8 8.3
2015-Jan-20 00:34N 51°16' E 001°48'9 8.5
2015-Jan-19 23:34N 51°23' E 001°55'10 9.6
2015-Jan-19 22:34N 51°31' E 002°04'1110.7
2015-Jan-19 21:34N 51°39' E 002°15'5810.9
2015-Jan-19 16:14N 52°03' E 003°41'710.4
2015-Jan-19 15:33N 52°03' E 003°52'1110.6
2015-Jan-19 14:34N 51°58' E 004°07'4 4.1
2015-Jan-19 13:31N 51°55' E 004°12'0 0.0
2015-Jan-19 12:31N 51°55' E 004°12'0 0.0
2015-Jan-19 11:31N 51°55' E 004°12'0 0.0
2015-Jan-19 10:29N 51°55' E 004°12'0 0.0
2015-Jan-19 09:31N 51°55' E 004°12'0 0.0
2015-Jan-19 08:31N 51°55' E 004°12'0 0.0
2015-Jan-19 07:31N 51°55' E 004°12'0 0.0
2015-Jan-19 06:31N 51°55' E 004°12'0 0.0
2015-Jan-19 05:31N 51°55' E 004°12'0 0.0
2015-Jan-19 04:31N 51°55' E 004°12'0 0.0
2015-Jan-19 03:28N 51°55' E 004°12'0 0.0
2015-Jan-19 02:32N 51°55' E 004°12'0 0.0
2015-Jan-19 01:31N 51°55' E 004°12'0 0.0
2015-Jan-19 00:31N 51°55' E 004°12'0 0.0
2015-Jan-18 23:31N 51°55' E 004°12'0 0.0
2015-Jan-18 22:31N 51°55' E 004°12'0 0.0
2015-Jan-18 21:31N 51°55' E 004°12'0 0.0
2015-Jan-18 20:31N 51°55' E 004°12'0 0.0
2015-Jan-18 19:31N 51°55' E 004°12'0 0.0
2015-Jan-18 18:31N 51°55' E 004°12'0 0.0
2015-Jan-18 17:31N 51°55' E 004°12'0 0.0
2015-Jan-18 16:31N 51°55' E 004°12'0 0.0
2015-Jan-18 15:31N 51°55' E 004°12'0 0.0
2015-Jan-18 14:28N 51°55' E 004°12'0 0.0
2015-Jan-18 13:28N 51°55' E 004°12'0 0.0
2015-Jan-18 12:31N 51°55' E 004°12'0 0.0
2015-Jan-18 11:28N 51°55' E 004°12'0 0.0
2015-Jan-18 10:31N 51°55' E 004°12'0 0.0
2015-Jan-18 09:31N 51°55' E 004°12'0 0.0
2015-Jan-18 08:31N 51°55' E 004°12'0 0.0
2015-Jan-18 07:31N 51°55' E 004°12'0 0.0
2015-Jan-18 06:31N 51°55' E 004°12'0 0.0
2015-Jan-18 05:31N 51°55' E 004°12'0 0.0
2015-Jan-18 04:31N 51°55' E 004°12'0 0.0
2015-Jan-18 03:31N 51°55' E 004°12'0 0.0
2015-Jan-18 02:25N 51°55' E 004°12'0 0.0
2015-Jan-18 01:31N 51°55' E 004°12'0 0.0
2015-Jan-18 00:31N 51°55' E 004°12'0 0.0
2015-Jan-17 23:33N 51°55' E 004°12'4 3.8
2015-Jan-17 22:34N 51°58' E 004°08'2 1.5
2015-Jan-17 21:34N 51°59' E 004°06'9 9.3
2015-Jan-17 20:33N 51°53' E 004°19'1 0.8
2015-Jan-17 19:33N 51°53' E 004°17'0 0.0
2015-Jan-17 18:33N 51°53' E 004°17'0 0.0
2015-Jan-17 17:33N 51°53' E 004°17'0 0.0
2015-Jan-17 16:33N 51°53' E 004°17'0 0.0
2015-Jan-17 15:33N 51°53' E 004°17'0 0.0
2015-Jan-17 14:33N 51°53' E 004°17'0 0.0
2015-Jan-17 13:33N 51°53' E 004°17'0 0.0
2015-Jan-17 12:33N 51°53' E 004°17'0 0.0
2015-Jan-17 11:33N 51°53' E 004°17'0 0.0
2015-Jan-17 10:33N 51°53' E 004°17'0 0.0
2015-Jan-17 09:33N 51°53' E 004°17'0 0.0
2015-Jan-17 08:33N 51°53' E 004°17'0 0.0
2015-Jan-17 07:33N 51°53' E 004°17'0 0.0
2015-Jan-17 06:33N 51°53' E 004°17'0 0.0
2015-Jan-17 05:33N 51°53' E 004°17'0 0.0
2015-Jan-17 04:33N 51°53' E 004°17'0 0.0
2015-Jan-17 03:33N 51°53' E 004°17'0 0.0
2015-Jan-17 02:33N 51°53' E 004°17'0 0.0
2015-Jan-17 01:33N 51°53' E 004°17'0 0.0
2015-Jan-17 00:33N 51°53' E 004°17'0 0.0
2015-Jan-16 23:33N 51°53' E 004°17'0 0.0
2015-Jan-16 22:33N 51°53' E 004°17'0 0.0
2015-Jan-16 21:33N 51°53' E 004°17'0 0.0
2015-Jan-16 20:33N 51°53' E 004°17'0 0.0
2015-Jan-16 19:33N 51°53' E 004°17'0 0.0
2015-Jan-16 18:30N 51°53' E 004°17'0 0.0
2015-Jan-16 17:33N 51°53' E 004°17'0 0.0
2015-Jan-16 16:33N 51°53' E 004°17'0 0.0
2015-Jan-16 15:33N 51°53' E 004°17'0 0.0
2015-Jan-16 14:33N 51°53' E 004°17'0 0.0
2015-Jan-16 13:33N 51°53' E 004°17'0 0.0
2015-Jan-16 12:33N 51°53' E 004°17'0 0.0
2015-Jan-16 11:27N 51°53' E 004°17'0 0.0
2015-Jan-16 10:33N 51°53' E 004°17'0 0.0
2015-Jan-16 09:33N 51°53' E 004°17'0 0.0
2015-Jan-16 08:33N 51°53' E 004°17'0 0.0
2015-Jan-16 07:30N 51°53' E 004°17'0 0.0
2015-Jan-16 06:33N 51°53' E 004°17'0 0.0
2015-Jan-16 05:33N 51°53' E 004°17'0 0.0
2015-Jan-16 04:33N 51°53' E 004°17'0 0.0
2015-Jan-16 03:33N 51°53' E 004°17'0 0.0
2015-Jan-16 02:33N 51°53' E 004°17'0 0.0
2015-Jan-16 01:33N 51°53' E 004°17'0 0.0
2015-Jan-16 00:33N 51°53' E 004°17'0 0.0
2015-Jan-15 23:33N 51°53' E 004°17'0 0.0
2015-Jan-15 22:33N 51°53' E 004°17'0 0.0
2015-Jan-15 21:33N 51°53' E 004°17'0 0.0
2015-Jan-15 20:33N 51°53' E 004°17'0 0.0
2015-Jan-15 19:33N 51°53' E 004°17'0 0.0
2015-Jan-15 18:30N 51°53' E 004°17'0 0.0
2015-Jan-15 17:27N 51°53' E 004°17'0 0.0
2015-Jan-15 16:33N 51°53' E 004°17'0 0.0
2015-Jan-15 15:33N 51°53' E 004°17'0 0.0
2015-Jan-15 14:33N 51°53' E 004°17'0 0.0
2015-Jan-15 13:33N 51°53' E 004°17'1 0.8
2015-Jan-15 12:33N 51°54' E 004°17'8 7.9
2015-Jan-15 11:33N 51°59' E 004°06'1212.0
2015-Jan-15 10:33N 51°59' E 003°47'8 7.9
2015-Jan-15 09:33N 51°57' E 003°35'6 6.4
2015-Jan-15 08:33N 51°54' E 003°25'0 0.4
2015-Jan-15 07:32N 51°54' E 003°26'0 0.0
2015-Jan-15 06:05N 51°54' E 003°26'0 0.1
2015-Jan-15 05:26N 51°54' E 003°26'0 0.0
2015-Jan-15 04:14N 51°54' E 003°26'0 0.0
2015-Jan-15 03:32N 51°54' E 003°26'0 0.0
2015-Jan-15 02:26N 51°54' E 003°26'0 0.0
2015-Jan-15 01:26N 51°54' E 003°26'0 0.0
2015-Jan-15 00:14N 51°54' E 003°26'0 0.0
2015-Jan-14 22:29N 51°54' E 003°25'0 0.0
2015-Jan-14 20:26N 51°54' E 003°26'0 0.1
2015-Jan-14 19:23N 51°54' E 003°26'0 0.1
2015-Jan-14 18:29N 51°54' E 003°26'0 0.0
2015-Jan-14 17:26N 51°54' E 003°26'0 0.0
2015-Jan-14 16:29N 51°54' E 003°26'0 0.1
2015-Jan-14 15:20N 51°54' E 003°26'0 0.0
2015-Jan-14 10:08N 51°54' E 003°26'0 0.1
2015-Jan-14 09:23N 51°54' E 003°26'0 0.1
2015-Jan-14 08:14N 51°54' E 003°26'2 3.2
2015-Jan-14 07:28N 51°54' E 003°22'9 8.8
2015-Jan-14 06:30N 51°52' E 003°09'2310.6
2015-Jan-14 04:21N 51°44' E 002°34'911.2
2015-Jan-14 03:32N 51°37' E 002°25'1110.9
2015-Jan-14 02:33N 51°29' E 002°13'1010.5
2015-Jan-14 01:33N 51°21' E 002°01'1010.1
2015-Jan-14 00:34N 51°14' E 001°50'1010.1
2015-Jan-13 23:33N 51°06' E 001°40'1010.4
2015-Jan-13 22:34N 50°58' E 001°29'1110.6
2015-Jan-13 21:33N 50°48' E 001°24'41 9.6
2015-Jan-13 17:18N 50°24' E 000°32'  
2015-Jan-10 16:07N 39°22' W 009°49'712.5
2015-Jan-10 15:32N 39°15' W 009°50'1212.4
2015-Jan-10 14:33N 39°02' W 009°51'1212.6
2015-Jan-10 13:33N 38°50' W 009°51'1212.4
2015-Jan-10 12:33N 38°37' W 009°49'1212.2
2015-Jan-10 11:33N 38°26' W 009°42'  

Dump ship's entire track history